Time;durP1;ratioP1;P1;durP2;ratioP2;P2;SDS_P1;SDS_P2;PMS_P1;PMS_P2;Temp;Humidity;BMP_temperature;BMP_pressure;BME280_temperature;BME280_humidity;BME280_pressure;Samples;Min_cycle;Max_cycle;Signal;HPM_P1;HPM_P2
2023/12/13 00:01:44;;;;;;;6.53;2.80;;;5.30;99.90;5.10;98992.00;;;;4957831;28;93468;-72
2023/12/13 00:04:10;;;;;;;8.87;2.47;;;5.30;99.90;5.10;98988.00;;;;4951314;28;112176;-72
2023/12/13 00:06:36;;;;;;;2.97;2.50;;;5.60;99.90;5.10;98991.00;;;;4942864;28;107455;-72
2023/12/13 00:09:02;;;;;;;3.83;2.77;;;5.30;99.90;5.10;98986.00;;;;4948504;28;121153;-72
2023/12/13 00:11:28;;;;;;;2.83;2.53;;;5.30;99.90;5.10;98978.00;;;;4947182;28;93248;-73
2023/12/13 00:13:54;;;;;;;6.40;2.40;;;5.90;99.90;5.10;98990.00;;;;4940686;28;95909;-73
2023/12/13 00:16:21;;;;;;;6.07;2.50;;;5.60;99.90;5.10;98983.00;;;;4949485;28;108665;-72
2023/12/13 00:18:49;;;;;;;3.60;2.93;;;5.30;99.90;5.10;98994.00;;;;4948647;28;93277;-72
2023/12/13 00:21:15;;;;;;;6.87;2.33;;;5.60;99.90;5.10;98978.00;;;;4948310;28;94263;-72
2023/12/13 00:23:48;;;;;;;15.53;3.87;;;5.30;99.90;5.10;98991.00;;;;4948978;28;93386;-72
2023/12/13 00:26:17;;;;;;;7.70;3.07;;;5.90;99.90;5.10;98978.00;;;;4956352;28;93107;-72
2023/12/13 00:28:43;;;;;;;6.47;3.23;;;5.30;99.90;5.10;98972.00;;;;4951870;28;93418;-72
2023/12/13 00:31:10;;;;;;;4.70;2.27;;;5.50;99.90;5.10;98973.00;;;;4952221;28;93228;-72
2023/12/13 00:33:37;;;;;;;5.80;3.03;;;5.30;99.90;5.10;98968.00;;;;4951291;28;99438;-72
2023/12/13 00:36:04;;;;;;;5.90;3.07;;;5.30;99.90;5.10;98961.00;;;;4948330;28;96360;-72
2023/12/13 00:38:29;;;;;;;3.53;2.20;;;5.30;99.90;5.10;98966.00;;;;4951336;28;99412;-72
2023/12/13 00:40:55;;;;;;;4.27;2.40;;;5.40;99.90;5.10;98966.00;;;;4933578;28;121146;-73
2023/12/13 00:43:21;;;;;;;3.23;1.93;;;6.00;99.90;5.10;98970.00;;;;4952512;28;92760;-72
2023/12/13 00:45:48;;;;;;;5.90;2.50;;;5.30;99.90;5.20;98959.00;;;;4946458;28;93831;-73
2023/12/13 00:48:13;;;;;;;2.67;2.33;;;5.90;99.90;5.20;98964.00;;;;4944501;28;111894;-73
2023/12/13 00:50:39;;;;;;;5.33;1.90;;;5.70;99.90;5.20;98960.00;;;;4949682;28;122331;-73
2023/12/13 00:53:05;;;;;;;7.23;2.37;;;6.00;99.90;5.30;98964.00;;;;4953235;28;92957;-72
2023/12/13 00:55:31;;;;;;;6.37;2.87;;;5.40;99.90;5.30;98949.00;;;;4950554;28;108800;-73
2023/12/13 00:57:57;;;;;;;3.40;2.67;;;5.50;99.90;5.30;98947.00;;;;4950540;28;122891;-73
2023/12/13 01:00:26;;;;;;;5.07;2.53;;;5.50;99.90;5.40;98953.00;;;;4951680;28;93231;-73
2023/12/13 01:02:52;;;;;;;2.80;2.03;;;6.30;99.90;5.40;98961.00;;;;4948349;28;109859;-72
2023/12/13 01:05:18;;;;;;;3.27;2.43;;;6.00;99.90;5.50;98961.00;;;;4947477;28;92895;-72
2023/12/13 01:07:44;;;;;;;3.17;2.27;;;5.60;99.90;5.50;98957.00;;;;4949263;28;93033;-72
2023/12/13 01:10:10;;;;;;;5.30;2.87;;;5.90;99.90;5.50;98949.00;;;;4948903;28;94011;-71
2023/12/13 01:12:36;;;;;;;5.10;1.47;;;5.60;99.90;5.50;98949.00;;;;4947290;28;92627;-72
2023/12/13 01:15:02;;;;;;;3.77;2.20;;;5.70;99.90;5.50;98951.00;;;;4933190;28;96075;-74
2023/12/13 01:17:28;;;;;;;5.43;2.93;;;5.70;99.90;5.40;98952.00;;;;4933390;28;94426;-76
2023/12/13 01:19:53;;;;;;;5.30;2.60;;;5.60;99.90;5.40;98945.00;;;;4953684;28;99009;-78
2023/12/13 01:22:20;;;;;;;6.93;2.50;;;5.60;99.90;5.30;98951.00;;;;4948882;28;105635;-78
2023/12/13 01:24:45;;;;;;;4.27;2.60;;;5.50;99.90;5.30;98955.00;;;;4949481;28;94280;-78
2023/12/13 01:27:11;;;;;;;2.63;2.37;;;5.50;99.90;5.20;98942.00;;;;4936752;28;116989;-79
2023/12/13 01:29:36;;;;;;;3.97;2.50;;;6.20;99.90;5.20;98941.00;;;;4944806;28;121211;-78
2023/12/13 01:32:03;;;;;;;11.50;3.00;;;5.30;99.90;5.20;98940.00;;;;4945334;28;110354;-78
2023/12/13 01:34:29;;;;;;;3.93;2.67;;;5.40;99.90;5.10;98940.00;;;;4933262;28;99922;-79
2023/12/13 01:36:55;;;;;;;5.20;2.43;;;5.90;99.90;5.10;98936.00;;;;4947696;28;93527;-78
2023/12/13 01:39:21;;;;;;;3.07;2.00;;;5.70;99.90;5.10;98941.00;;;;4949722;28;102524;-77
2023/12/13 01:41:47;;;;;;;4.53;2.57;;;5.30;99.90;5.20;98935.00;;;;4947454;28;110162;-76
2023/12/13 01:44:12;;;;;;;4.97;2.83;;;5.70;99.90;5.20;98934.00;;;;4950433;28;108105;-76
2023/12/13 01:46:39;;;;;;;6.87;2.70;;;6.00;99.90;5.20;98924.00;;;;4944259;28;122932;-77
2023/12/13 01:49:06;;;;;;;2.30;2.10;;;5.80;99.90;5.20;98930.00;;;;4950280;28;111300;-78
2023/12/13 01:51:35;;;;;;;4.60;2.43;;;5.50;99.90;5.20;98924.00;;;;4955415;28;92201;-76
2023/12/13 01:54:10;;;;;;;3.40;2.60;;;5.50;99.90;5.20;98930.00;;;;4943533;28;108942;-76
2023/12/13 01:56:40;;;;;;;4.00;2.10;;;5.40;99.90;5.20;98929.00;;;;4934193;28;96086;-76
2023/12/13 01:59:06;;;;;;;2.37;2.00;;;5.70;99.90;5.30;98929.00;;;;4949094;28;112222;-76
2023/12/13 02:01:32;;;;;;;6.70;2.33;;;5.70;99.90;5.30;98928.00;;;;4944130;28;110292;-77
2023/12/13 02:03:58;;;;;;;3.43;2.17;;;5.40;99.90;5.30;98915.00;;;;4946776;28;109088;-77
2023/12/13 02:06:23;;;;;;;2.97;1.93;;;5.40;99.90;5.30;98918.00;;;;4929715;28;95418;-77
2023/12/13 02:08:49;;;;;;;3.00;2.33;;;5.50;99.90;5.30;98930.00;;;;4937394;28;122576;-76
2023/12/13 02:11:15;;;;;;;5.00;3.13;;;5.80;99.90;5.40;98925.00;;;;4949504;28;109098;-75
2023/12/13 02:13:41;;;;;;;5.10;2.10;;;5.90;99.90;5.40;98923.00;;;;4951570;28;98483;-76
2023/12/13 02:16:07;;;;;;;3.67;2.30;;;5.60;99.90;5.40;98925.00;;;;4940264;28;122234;-76
2023/12/13 02:18:33;;;;;;;5.10;2.53;;;5.60;99.90;5.40;98919.00;;;;4935871;28;110633;-77
2023/12/13 02:20:59;;;;;;;3.67;2.43;;;6.30;99.90;5.40;98928.00;;;;4946851;28;111328;-76
2023/12/13 02:23:24;;;;;;;4.37;2.00;;;5.60;99.90;5.40;98915.00;;;;4949389;28;109127;-76
2023/12/13 02:26:00;;;;;;;3.40;2.57;;;5.80;99.90;5.40;98913.00;;;;4930313;28;123237;-76
2023/12/13 02:28:28;;;;;;;7.47;2.73;;;6.30;99.90;5.50;98904.00;;;;4926466;28;95484;-76
2023/12/13 02:30:59;;;;;;;4.60;3.00;;;6.30;99.90;5.50;98901.00;;;;4945674;28;96284;-76
2023/12/13 02:33:26;;;;;;;6.27;2.47;;;5.70;99.90;5.50;98902.00;;;;4954289;28;93043;-76
2023/12/13 02:36:03;;;;;;;3.00;2.70;;;6.30;99.90;5.60;98896.00;;;;4952382;28;110294;-74
2023/12/13 02:38:29;;;;;;;6.50;2.40;;;6.40;99.90;5.60;98895.00;;;;4952348;28;93171;-75
2023/12/13 02:40:55;;;;;;;7.10;3.37;;;5.70;99.90;5.60;98898.00;;;;4947503;28;108803;-74
2023/12/13 02:43:20;;;;;;;4.63;2.83;;;5.80;99.90;5.60;98887.00;;;;4947164;28;108054;-74
2023/12/13 02:45:47;;;;;;;3.10;2.27;;;5.90;99.90;5.70;98889.00;;;;4948221;28;122150;-74
2023/12/13 02:48:12;;;;;;;5.77;2.80;;;5.90;99.90;5.70;98883.00;;;;4945222;28;94131;-74
2023/12/13 02:50:38;;;;;;;5.00;3.10;;;5.90;99.90;5.70;98889.00;;;;4948793;28;109456;-74
2023/12/13 02:53:07;;;;;;;4.47;3.03;;;6.00;99.90;5.80;98881.00;;;;4952979;28;93125;-75
2023/12/13 02:55:33;;;;;;;4.10;2.83;;;5.90;99.90;5.80;98869.00;;;;4949341;28;123122;-76
2023/12/13 02:58:00;;;;;;;5.13;3.13;;;5.90;99.90;5.80;98868.00;;;;4952406;28;93500;-76
2023/12/13 03:00:26;;;;;;;3.43;2.50;;;6.10;99.90;5.80;98873.00;;;;4950249;28;92804;-76
2023/12/13 03:02:51;;;;;;;3.60;2.30;;;6.00;99.90;5.80;98865.00;;;;4948383;28;108270;-76
2023/12/13 03:05:17;;;;;;;4.23;2.83;;;6.50;99.90;5.80;98861.00;;;;4934939;28;122274;-77
2023/12/13 03:07:43;;;;;;;8.80;2.87;;;6.10;99.90;5.80;98872.00;;;;4947737;28;92902;-77
2023/12/13 03:10:09;;;;;;;3.07;2.27;;;6.40;99.90;5.80;98860.00;;;;4945360;28;98610;-78
2023/12/13 03:12:35;;;;;;;3.33;2.93;;;6.00;99.90;5.90;98871.00;;;;4952426;28;94311;-77
2023/12/13 03:15:01;;;;;;;4.63;2.60;;;6.00;99.90;5.90;98855.00;;;;4957398;28;93538;-77
2023/12/13 03:17:26;;;;;;;5.87;2.93;;;6.00;99.90;5.90;98853.00;;;;4948162;28;95606;-77
2023/12/13 03:19:52;;;;;;;5.20;3.37;;;6.70;99.90;5.90;98854.00;;;;4953376;28;109820;-77
2023/12/13 03:22:18;;;;;;;5.43;3.17;;;6.00;99.90;5.80;98856.00;;;;4933635;28;107914;-78
2023/12/13 03:24:43;;;;;;;5.33;3.30;;;6.40;99.90;5.90;98860.00;;;;4948343;28;122830;-77
2023/12/13 03:27:09;;;;;;;5.07;3.10;;;6.10;99.90;5.90;98865.00;;;;4950790;28;93114;-77
2023/12/13 03:29:35;;;;;;;5.43;3.20;;;6.20;99.90;5.90;98857.00;;;;4947295;28;103609;-76
2023/12/13 03:32:00;;;;;;;9.63;3.63;;;6.10;99.90;5.90;98847.00;;;;4946728;28;106061;-76
2023/12/13 03:34:26;;;;;;;3.70;2.77;;;6.10;99.90;5.90;98854.00;;;;4948550;28;94723;-76
2023/12/13 03:36:52;;;;;;;4.47;3.63;;;6.10;99.90;5.90;98844.00;;;;4948399;28;93968;-75
2023/12/13 03:39:17;;;;;;;10.60;3.40;;;6.00;99.90;5.90;98843.00;;;;4943797;28;109990;-74
2023/12/13 03:41:43;;;;;;;5.27;3.03;;;6.10;99.90;5.90;98840.00;;;;4952632;28;108891;-75
2023/12/13 03:44:09;;;;;;;6.97;3.97;;;6.10;99.90;6.00;98837.00;;;;4946023;28;121081;-75
2023/12/13 03:46:34;;;;;;;6.57;3.70;;;6.80;99.90;6.00;98844.00;;;;4949990;28;122269;-74
2023/12/13 03:49:00;;;;;;;6.30;3.77;;;6.20;99.90;6.00;98836.00;;;;4950805;28;109696;-74
2023/12/13 03:51:25;;;;;;;7.40;4.53;;;6.60;99.90;6.00;98835.00;;;;4954690;28;108814;-73
2023/12/13 03:53:51;;;;;;;8.27;5.03;;;6.10;99.90;6.00;98830.00;;;;4950782;28;121149;-74
2023/12/13 03:56:29;;;;;;;13.27;5.83;;;6.20;99.90;6.00;98831.00;;;;4953292;28;121459;-75
2023/12/13 03:58:57;;;;;;;10.40;5.60;;;6.60;99.90;6.00;98828.00;;;;4953724;28;93079;-75
2023/12/13 04:01:23;;;;;;;8.07;4.50;;;6.50;99.90;6.10;98830.00;;;;4962646;28;107855;-76
2023/12/13 04:03:49;;;;;;;23.97;12.30;;;6.30;99.90;6.10;98829.00;;;;4950201;28;122779;-75
2023/12/13 04:06:14;;;;;;;14.73;7.53;;;6.20;99.90;6.10;98828.00;;;;4949632;28;93006;-75
2023/12/13 04:08:40;;;;;;;13.33;7.30;;;6.30;99.90;6.10;98830.00;;;;4944487;28;114000;-74
2023/12/13 04:11:06;;;;;;;11.30;7.80;;;6.30;99.90;6.10;98831.00;;;;4945734;28;108357;-74
2023/12/13 04:13:32;;;;;;;8.00;4.50;;;6.40;99.90;6.20;98825.00;;;;4951393;28;93718;-75
2023/12/13 04:15:57;;;;;;;6.00;4.03;;;6.30;99.90;6.20;98823.00;;;;4942351;28;122329;-76
2023/12/13 04:18:23;;;;;;;6.97;3.90;;;6.30;99.90;6.20;98829.00;;;;4949069;28;111160;-76
2023/12/13 04:20:48;;;;;;;7.27;4.73;;;6.40;99.90;6.20;98823.00;;;;4951852;28;107053;-76
2023/12/13 04:23:14;;;;;;;5.57;4.13;;;6.40;99.90;6.30;98822.00;;;;4946863;28;121641;-76
2023/12/13 04:25:40;;;;;;;7.73;4.60;;;6.40;99.90;6.30;98815.00;;;;4950171;28;122479;-75
2023/12/13 04:28:06;;;;;;;7.50;4.00;;;6.40;99.90;6.30;98821.00;;;;4946552;28;110479;-77
2023/12/13 04:30:31;;;;;;;7.40;3.50;;;6.40;99.90;6.30;98820.00;;;;4952231;28;92773;-77
2023/12/13 04:32:58;;;;;;;8.13;4.07;;;6.50;99.90;6.30;98816.00;;;;4954866;28;93651;-77
2023/12/13 04:35:24;;;;;;;6.00;4.07;;;6.40;99.90;6.30;98811.00;;;;4941513;28;121889;-77
2023/12/13 04:37:50;;;;;;;5.47;4.03;;;6.50;99.90;6.30;98809.00;;;;4933907;28;93273;-76
2023/12/13 04:40:15;;;;;;;5.97;4.63;;;6.50;99.90;6.40;98815.00;;;;4951273;28;108091;-76
2023/12/13 04:42:41;;;;;;;7.97;5.07;;;6.50;99.90;6.40;98812.00;;;;4953582;28;93210;-78
2023/12/13 04:45:08;;;;;;;6.27;4.43;;;6.50;99.90;6.40;98811.00;;;;4951072;28;92884;-77
2023/12/13 04:47:34;;;;;;;5.13;4.07;;;6.50;99.90;6.40;98803.00;;;;4950436;28;93057;-76
2023/12/13 04:49:59;;;;;;;10.00;4.97;;;6.60;99.90;6.40;98804.00;;;;4951195;28;108733;-76
2023/12/13 04:52:25;;;;;;;9.47;4.43;;;6.60;99.90;6.40;98803.00;;;;4947629;28;93039;-76
2023/12/13 04:54:51;;;;;;;7.67;4.77;;;6.60;99.90;6.40;98807.00;;;;4949089;28;121977;-77
2023/12/13 04:57:16;;;;;;;9.33;4.50;;;6.60;99.90;6.40;98799.00;;;;4951378;28;110602;-75
2023/12/13 04:59:42;;;;;;;8.50;5.37;;;6.60;99.90;6.40;98796.00;;;;4947900;28;98554;-77
2023/12/13 05:02:08;;;;;;;11.93;6.00;;;6.60;99.90;6.40;98787.00;;;;4946318;28;102071;-75
2023/12/13 05:04:33;;;;;;;7.63;5.00;;;6.60;99.90;6.40;98785.00;;;;4950811;28;123251;-74
2023/12/13 05:06:59;;;;;;;7.13;5.80;;;6.70;99.90;6.40;98786.00;;;;4947816;28;110533;-76
2023/12/13 05:09:24;;;;;;;9.70;5.70;;;6.60;99.90;6.40;98794.00;;;;4960642;28;109849;-75
2023/12/13 05:11:50;;;;;;;9.37;5.73;;;6.60;99.90;6.40;98784.00;;;;4952786;28;121686;-76
2023/12/13 05:14:16;;;;;;;7.03;5.40;;;6.60;99.90;6.40;98780.00;;;;4949401;28;121207;-75
2023/12/13 05:16:41;;;;;;;10.70;5.50;;;6.60;99.90;6.40;98775.00;;;;4949078;28;114514;-74
2023/12/13 05:19:07;;;;;;;9.43;5.40;;;6.60;99.90;6.40;98791.00;;;;4952958;28;92800;-74
2023/12/13 05:21:33;;;;;;;5.37;4.00;;;6.60;99.90;6.40;98794.00;;;;4948050;28;122883;-75
2023/12/13 05:23:59;;;;;;;6.63;4.57;;;6.60;99.90;6.40;98794.00;;;;4932223;28;121985;-74
2023/12/13 05:26:24;;;;;;;8.67;5.53;;;6.60;99.90;6.50;98783.00;;;;4947215;28;92738;-74
2023/12/13 05:28:50;;;;;;;5.93;4.63;;;7.10;99.90;6.50;98783.00;;;;4951426;28;108530;-74
2023/12/13 05:31:20;;;;;;;5.03;4.07;;;6.60;99.90;6.50;98783.00;;;;4933451;28;94646;-75
2023/12/13 05:33:47;;;;;;;8.17;4.60;;;6.60;99.90;6.50;98786.00;;;;4952488;28;92846;-75
2023/12/13 05:36:12;;;;;;;9.00;6.33;;;6.60;99.90;6.60;98788.00;;;;4942329;28;93053;-77
2023/12/13 05:38:38;;;;;;;8.70;6.07;;;7.00;99.90;6.60;98778.00;;;;4943514;28;98164;-75
2023/12/13 05:41:04;;;;;;;13.93;5.60;;;6.70;99.90;6.60;98784.00;;;;4942996;28;121829;-75
2023/12/13 05:43:30;;;;;;;7.80;5.67;;;6.70;99.90;6.50;98791.00;;;;4929906;28;111874;-73
2023/12/13 05:45:56;;;;;;;7.17;4.90;;;6.90;99.90;6.50;98787.00;;;;4944723;28;104793;-77
2023/12/13 05:48:21;;;;;;;6.93;5.10;;;6.90;99.90;6.50;98786.00;;;;4940531;28;93494;-78
2023/12/13 05:50:47;;;;;;;7.47;4.60;;;6.70;99.90;6.60;98782.00;;;;4939556;28;96383;-79
2023/12/13 05:53:13;;;;;;;6.93;4.60;;;6.70;99.90;6.60;98787.00;;;;4935852;28;120818;-77
2023/12/13 05:55:38;;;;;;;9.87;5.50;;;6.60;99.90;6.60;98795.00;;;;4936684;28;109454;-77
2023/12/13 05:58:04;;;;;;;7.87;4.90;;;6.70;99.90;6.60;98793.00;;;;4939003;28;107785;-77
2023/12/13 06:00:31;;;;;;;8.80;5.33;;;6.70;99.90;6.60;98796.00;;;;4934389;28;95009;-78
2023/12/13 06:02:58;;;;;;;7.43;4.73;;;6.70;99.90;6.60;98806.00;;;;4926991;28;94649;-78
2023/12/13 06:05:24;;;;;;;6.47;4.97;;;6.70;99.90;6.60;98805.00;;;;4929078;28;98433;-78
2023/12/13 06:07:50;;;;;;;9.37;4.87;;;6.70;99.90;6.60;98799.00;;;;4948236;28;92991;-77
2023/12/13 06:10:17;;;;;;;9.87;6.03;;;6.80;99.90;6.60;98795.00;;;;4929119;28;115486;-78
2023/12/13 06:12:43;;;;;;;10.73;5.33;;;6.80;99.90;6.60;98798.00;;;;4940165;28;94816;-79
2023/12/13 06:15:09;;;;;;;9.83;5.23;;;6.70;99.90;6.70;98796.00;;;;4950572;28;93196;-78
2023/12/13 06:17:35;;;;;;;10.17;6.93;;;6.90;99.90;6.60;98795.00;;;;4954672;28;92962;-78
2023/12/13 06:20:01;;;;;;;8.50;6.27;;;6.80;99.90;6.60;98795.00;;;;4937955;28;94116;-78
2023/12/13 06:22:27;;;;;;;9.77;5.83;;;6.80;99.90;6.60;98794.00;;;;4954067;28;103620;-78
2023/12/13 06:24:55;;;;;;;8.00;5.33;;;6.80;99.90;6.60;98801.00;;;;4955524;28;92985;-78
2023/12/13 06:27:21;;;;;;;9.93;6.93;;;6.80;99.90;6.60;98805.00;;;;4953983;28;108297;-79
2023/12/13 06:29:46;;;;;;;13.90;5.90;;;6.80;99.90;6.60;98795.00;;;;4933495;28;124186;-78
2023/12/13 06:32:12;;;;;;;9.23;5.73;;;6.80;99.90;6.70;98803.00;;;;4950455;28;122170;-79
2023/12/13 06:34:38;;;;;;;8.57;6.10;;;7.40;99.90;6.70;98803.00;;;;4956004;28;109986;-76
2023/12/13 06:37:03;;;;;;;7.73;5.47;;;6.80;99.90;6.70;98800.00;;;;4956414;28;93634;-78
2023/12/13 06:39:29;;;;;;;12.10;5.40;;;6.80;99.90;6.70;98806.00;;;;4954967;28;122907;-79
2023/12/13 06:41:55;;;;;;;8.83;4.73;;;6.90;99.90;6.70;98802.00;;;;4950941;28;123684;-77
2023/12/13 06:44:21;;;;;;;7.97;4.43;;;6.90;99.90;6.70;98796.00;;;;4948681;28;93634;-78
2023/12/13 06:46:47;;;;;;;8.20;4.70;;;7.20;99.90;6.70;98794.00;;;;4954964;28;92948;-80
2023/12/13 06:49:13;;;;;;;8.50;5.70;;;7.20;99.90;6.70;98804.00;;;;4951215;28;93348;-78
2023/12/13 06:51:38;;;;;;;10.60;4.87;;;6.90;99.90;6.70;98800.00;;;;4950750;28;93896;-78
2023/12/13 06:54:04;;;;;;;7.50;4.67;;;6.90;99.90;6.70;98798.00;;;;4936709;28;111055;-79
2023/12/13 06:56:30;;;;;;;7.43;5.43;;;6.90;99.90;6.70;98807.00;;;;4955009;28;93352;-81
2023/12/13 06:58:55;;;;;;;10.77;5.30;;;6.90;99.90;6.70;98799.00;;;;4954376;28;99252;-78
2023/12/13 07:01:22;;;;;;;5.77;4.13;;;7.00;99.90;6.80;98804.00;;;;4949519;28;123312;-80
2023/12/13 07:03:47;;;;;;;9.47;5.20;;;6.90;99.90;6.80;98803.00;;;;4938748;28;93053;-80
2023/12/13 07:06:16;;;;;;;6.83;4.50;;;6.90;99.90;6.80;98812.00;;;;4946856;28;108697;-76
2023/12/13 07:08:42;;;;;;;6.80;5.23;;;6.90;99.90;6.80;98809.00;;;;4954525;28;94863;-77
2023/12/13 07:11:08;;;;;;;10.43;5.30;;;7.00;99.90;6.80;98814.00;;;;4943148;28;103586;-78
2023/12/13 07:13:34;;;;;;;8.33;5.43;;;7.00;99.90;6.90;98814.00;;;;4949641;28;92916;-78
2023/12/13 07:16:00;;;;;;;8.47;4.73;;;7.10;99.90;6.90;98820.00;;;;4948475;28;109054;-78
2023/12/13 07:18:25;;;;;;;8.37;5.43;;;7.10;99.90;6.90;98814.00;;;;4947770;28;123025;-78
2023/12/13 07:20:52;;;;;;;9.87;5.87;;;7.00;99.90;6.90;98822.00;;;;4956351;28;95067;-78
2023/12/13 07:23:18;;;;;;;16.10;5.77;;;7.00;99.90;7.00;98815.00;;;;4932152;28;92976;-77
2023/12/13 07:25:44;;;;;;;7.33;5.60;;;7.10;99.90;7.00;98816.00;;;;4953678;28;92826;-78
2023/12/13 07:28:10;;;;;;;10.07;5.07;;;7.10;99.90;7.00;98819.00;;;;4950663;28;93916;-78
2023/12/13 07:30:36;;;;;;;6.37;4.13;;;7.10;99.90;7.00;98815.00;;;;4949634;28;93019;-77
2023/12/13 07:33:03;;;;;;;8.30;4.83;;;7.20;99.90;7.00;98818.00;;;;4946932;28;109714;-77
2023/12/13 07:35:29;;;;;;;5.83;4.23;;;7.10;99.90;7.00;98811.00;;;;4933329;28;92844;-76
2023/12/13 07:37:55;;;;;;;10.80;5.63;;;7.20;99.90;7.00;98815.00;;;;4943441;28;122293;-77
2023/12/13 07:40:20;;;;;;;7.77;4.87;;;7.20;99.90;7.10;98821.00;;;;4934009;28;93873;-76
2023/12/13 07:42:47;;;;;;;6.90;4.60;;;7.20;99.90;7.10;98820.00;;;;4952291;28;92977;-77
2023/12/13 07:45:13;;;;;;;8.60;5.30;;;7.20;99.90;7.10;98818.00;;;;4949468;28;93098;-79
2023/12/13 07:47:39;;;;;;;5.90;4.27;;;7.20;99.90;7.10;98819.00;;;;4949879;28;95715;-80
2023/12/13 07:50:08;;;;;;;7.97;4.80;;;7.20;99.90;7.10;98816.00;;;;4951817;28;104345;-79
2023/12/13 07:52:33;;;;;;;4.43;3.43;;;7.20;99.90;7.10;98807.00;;;;4948693;28;110611;-78
2023/12/13 07:54:59;;;;;;;5.90;4.03;;;7.30;99.90;7.10;98809.00;;;;4946241;28;109509;-78
2023/12/13 07:57:25;;;;;;;7.83;4.23;;;7.20;99.90;7.10;98810.00;;;;4935086;28;94134;-78
2023/12/13 07:59:50;;;;;;;8.30;4.03;;;7.30;99.90;7.10;98821.00;;;;4952311;28;107477;-78
2023/12/13 08:02:20;;;;;;;11.33;4.97;;;7.20;99.90;7.10;98812.00;;;;4945516;28;109485;-77
2023/12/13 08:04:46;;;;;;;7.10;4.87;;;7.20;99.90;7.10;98819.00;;;;4955386;28;93748;-76
2023/12/13 08:07:12;;;;;;;4.93;4.33;;;7.30;99.90;7.10;98822.00;;;;4952131;28;93176;-77
2023/12/13 08:09:37;;;;;;;9.50;4.50;;;7.30;99.90;7.10;98823.00;;;;4958268;28;122272;-77
2023/12/13 08:12:03;;;;;;;7.00;4.90;;;7.30;99.90;7.20;98822.00;;;;4954511;28;92912;-77
2023/12/13 08:14:30;;;;;;;5.93;4.03;;;7.50;99.90;7.20;98823.00;;;;4936029;28;101290;-76
2023/12/13 08:17:02;;;;;;;8.90;4.53;;;7.30;99.90;7.20;98825.00;;;;4953915;28;93464;-77
2023/12/13 08:19:27;;;;;;;5.77;4.17;;;7.20;99.90;7.20;98823.00;;;;4933594;28;93115;-78
2023/12/13 08:21:53;;;;;;;5.57;3.80;;;7.70;99.90;7.20;98831.00;;;;4953980;28;99666;-76
2023/12/13 08:24:19;;;;;;;7.67;4.70;;;7.40;99.90;7.20;98833.00;;;;4952211;28;104886;-77
2023/12/13 08:26:45;;;;;;;7.13;4.07;;;7.40;99.90;7.20;98823.00;;;;4945442;28;101871;-76
2023/12/13 08:29:11;;;;;;;8.47;4.47;;;7.40;99.90;7.30;98826.00;;;;4950558;28;94071;-78
2023/12/13 08:31:42;;;;;;;9.40;4.70;;;7.40;99.90;7.30;98818.00;;;;4951347;28;92892;-77
2023/12/13 08:34:08;;;;;;;7.83;3.23;;;7.40;99.90;7.30;98820.00;;;;4933708;28;94298;-79
2023/12/13 08:36:34;;;;;;;6.40;3.70;;;7.50;99.90;7.30;98818.00;;;;4948377;28;120387;-80
2023/12/13 08:39:00;;;;;;;4.10;3.03;;;7.50;99.90;7.40;98820.00;;;;4950967;28;122852;-78
2023/12/13 08:41:27;;;;;;;3.10;2.60;;;7.40;99.90;7.40;98821.00;;;;4951896;28;92774;-77
2023/12/13 08:43:53;;;;;;;4.20;3.53;;;7.50;99.90;7.40;98827.00;;;;4950376;28;93700;-77
2023/12/13 08:46:19;;;;;;;6.93;4.10;;;7.50;99.90;7.40;98816.00;;;;4952593;28;122188;-78
2023/12/13 08:48:45;;;;;;;3.57;2.93;;;7.40;99.90;7.40;98822.00;;;;4953564;28;120649;-77
2023/12/13 08:51:11;;;;;;;5.10;2.97;;;7.50;99.90;7.40;98823.00;;;;4946502;28;92974;-77
2023/12/13 08:53:36;;;;;;;4.80;3.10;;;7.60;99.90;7.40;98822.00;;;;4946095;28;108389;-78
2023/12/13 08:56:02;;;;;;;5.83;3.67;;;7.60;99.90;7.40;98820.00;;;;4948539;28;122268;-77
2023/12/13 08:58:28;;;;;;;3.67;3.37;;;7.60;99.90;7.50;98813.00;;;;4950240;28;92993;-78
2023/12/13 09:00:54;;;;;;;6.53;4.77;;;7.60;99.90;7.50;98813.00;;;;4932046;28;92974;-79
2023/12/13 09:03:19;;;;;;;4.63;3.70;;;7.60;99.90;7.50;98814.00;;;;4955002;28;108154;-79
2023/12/13 09:05:45;;;;;;;4.43;3.93;;;7.70;99.90;7.60;98825.00;;;;4944575;28;94474;-80
2023/12/13 09:08:11;;;;;;;7.63;4.77;;;7.70;99.90;7.60;98819.00;;;;4943487;28;121683;-80
2023/12/13 09:10:36;;;;;;;5.80;4.07;;;7.70;99.90;7.70;98816.00;;;;4948113;28;110829;-81
2023/12/13 09:13:03;;;;;;;8.70;5.33;;;7.80;99.90;7.70;98815.00;;;;4950515;28;108988;-80
2023/12/13 09:15:29;;;;;;;6.73;4.23;;;7.80;99.90;7.90;98819.00;;;;4934405;28;112953;-81
2023/12/13 09:17:54;;;;;;;5.00;4.50;;;8.00;99.90;8.00;98819.00;;;;4947896;28;94141;-80
2023/12/13 09:20:20;;;;;;;7.60;4.43;;;8.30;99.90;8.10;98815.00;;;;4952847;28;109786;-80
2023/12/13 09:22:46;;;;;;;7.20;5.23;;;8.20;99.90;8.20;98819.00;;;;4929384;28;109490;-81
2023/12/13 09:25:15;;;;;;;6.13;4.93;;;8.20;99.90;8.30;98817.00;;;;4934784;28;95298;-82
2023/12/13 09:27:41;;;;;;;6.77;4.67;;;8.30;99.90;8.30;98825.00;;;;4951282;28;93277;-80
2023/12/13 09:30:11;;;;;;;6.77;5.33;;;8.40;99.90;8.40;98826.00;;;;4947435;28;93212;-81
2023/12/13 09:32:39;;;;;;;7.10;4.87;;;8.40;99.90;8.40;98817.00;;;;4945692;28;92974;-82
2023/12/13 09:35:05;;;;;;;8.73;4.87;;;8.50;99.90;8.40;98824.00;;;;4951245;28;109233;-80
2023/12/13 09:37:30;;;;;;;4.73;4.27;;;8.50;99.90;8.50;98824.00;;;;4942622;28;95259;-81
2023/12/13 09:39:56;;;;;;;6.30;4.60;;;8.70;99.90;8.50;98823.00;;;;4938343;28;93069;-80
2023/12/13 09:42:24;;;;;;;6.17;4.50;;;8.60;99.90;8.50;98827.00;;;;4947193;28;107143;-81
2023/12/13 09:44:50;;;;;;;6.23;4.50;;;8.60;99.90;8.50;98835.00;;;;4933823;28;122474;-80
2023/12/13 09:47:17;;;;;;;8.43;4.40;;;8.70;99.90;8.60;98836.00;;;;4948698;28;95321;-80
2023/12/13 09:49:44;;;;;;;4.93;3.77;;;8.70;99.90;8.60;98834.00;;;;4951647;28;97615;-80
2023/12/13 09:52:11;;;;;;;7.53;4.27;;;8.70;99.90;8.70;98827.00;;;;4925061;28;107172;-79
2023/12/13 09:54:40;;;;;;;7.13;3.97;;;8.80;99.90;8.80;98829.00;;;;4950455;28;94083;-80
2023/12/13 09:57:06;;;;;;;5.80;5.03;;;8.90;99.90;9.00;98826.00;;;;4947093;28;93360;-77
2023/12/13 09:59:32;;;;;;;6.27;4.37;;;9.00;99.90;9.40;98826.00;;;;4935806;28;112007;-78
2023/12/13 10:01:59;;;;;;;7.07;4.70;;;9.30;99.90;9.70;98826.00;;;;4946737;28;107949;-77
2023/12/13 10:04:28;;;;;;;11.00;5.43;;;9.70;99.90;10.10;98820.00;;;;4946354;28;112651;-76
2023/12/13 10:06:55;;;;;;;5.43;3.90;;;10.00;99.90;10.20;98816.00;;;;4946943;28;94127;-77
2023/12/13 10:09:20;;;;;;;4.43;3.43;;;10.20;99.90;10.30;98813.00;;;;4946621;28;98398;-77
2023/12/13 10:11:46;;;;;;;4.87;3.33;;;10.30;99.90;10.40;98818.00;;;;4946106;28;108325;-79
2023/12/13 10:14:12;;;;;;;8.47;3.80;;;10.40;99.90;10.30;98824.00;;;;4927016;28;125410;-78
2023/12/13 10:16:39;;;;;;;5.83;2.77;;;10.40;99.90;10.30;98824.00;;;;4948088;28;109825;-78
2023/12/13 10:19:06;;;;;;;4.47;2.90;;;10.40;99.90;10.30;98818.00;;;;4945929;28;92821;-79
2023/12/13 10:21:36;;;;;;;3.53;2.67;;;10.40;99.90;10.30;98827.00;;;;4952496;28;96988;-79
2023/12/13 10:24:06;;;;;;;2.57;2.37;;;10.50;99.90;10.30;98820.00;;;;4934541;28;108743;-78
2023/12/13 10:26:35;;;;;;;5.73;2.53;;;10.50;99.90;10.40;98826.00;;;;4935027;28;94573;-78
2023/12/13 10:29:02;;;;;;;2.57;2.37;;;10.40;99.90;10.30;98821.00;;;;4943592;28;94228;-78
2023/12/13 10:31:29;;;;;;;2.70;1.77;;;10.40;99.90;10.30;98831.00;;;;4956573;28;93968;-78
2023/12/13 10:33:55;;;;;;;5.47;2.57;;;10.40;99.90;10.20;98823.00;;;;4945912;28;105964;-79
2023/12/13 10:36:22;;;;;;;4.37;2.83;;;10.40;99.90;10.20;98821.00;;;;4949401;28;99120;-80
2023/12/13 10:38:53;;;;;;;3.03;2.37;;;10.30;99.90;10.10;98825.00;;;;4952264;28;92898;-82
2023/12/13 10:41:25;;;;;;;5.40;2.83;;;10.30;99.90;10.00;98826.00;;;;4955747;28;93192;-80
2023/12/13 10:43:55;;;;;;;3.20;2.40;;;10.10;99.90;10.00;98826.00;;;;4930569;28;95039;-80
2023/12/13 10:46:27;;;;;;;6.33;1.67;;;10.10;99.90;9.90;98826.00;;;;4935684;28;95332;-80
2023/12/13 10:48:54;;;;;;;5.33;2.47;;;10.10;99.90;9.90;98829.00;;;;4936277;28;92285;-78
2023/12/13 10:51:22;;;;;;;4.53;2.27;;;10.00;99.90;9.80;98817.00;;;;4943236;28;92854;-77
2023/12/13 10:53:48;;;;;;;2.27;1.93;;;10.00;99.90;9.80;98821.00;;;;4951787;28;97639;-76
2023/12/13 10:56:15;;;;;;;4.10;2.93;;;9.90;99.90;9.80;98824.00;;;;4947189;28;121843;-76
2023/12/13 10:58:44;;;;;;;4.57;2.57;;;9.90;99.90;9.80;98831.00;;;;4951579;28;93300;-76
2023/12/13 11:01:10;;;;;;;3.67;2.53;;;9.90;99.90;9.70;98826.00;;;;4951681;28;92859;-76